createdAt,value
2017-05-17T00:01:14.235Z,74.50
2017-05-17T00:03:43.104Z,75.40
2017-05-17T00:06:12.003Z,75.00
2017-05-17T00:08:40.886Z,75.30
2017-05-17T00:11:09.789Z,75.00
2017-05-17T00:13:38.662Z,74.60
2017-05-17T00:16:07.572Z,75.10
2017-05-17T00:18:36.447Z,75.20
2017-05-17T00:21:05.313Z,75.30
2017-05-17T00:23:34.318Z,75.60
2017-05-17T00:26:03.194Z,76.50
2017-05-17T00:28:32.064Z,77.70
2017-05-17T00:31:01.737Z,77.40
2017-05-17T00:33:30.604Z,77.60
2017-05-17T00:36:11.276Z,77.00
2017-05-17T00:38:51.897Z,76.90
2017-05-17T00:41:33.460Z,76.40
2017-05-17T00:44:14.232Z,76.50
2017-05-17T00:46:54.892Z,75.90
2017-05-17T00:49:35.688Z,75.80
2017-05-17T00:52:08.491Z,75.90
2017-05-17T00:54:38.127Z,76.60
2017-05-17T00:57:07.031Z,75.90
2017-05-17T00:59:35.907Z,76.40
2017-05-17T01:02:04.776Z,76.00
2017-05-17T01:04:33.685Z,75.50
2017-05-17T01:07:02.561Z,75.40
2017-05-17T01:09:31.434Z,75.30
2017-05-17T01:12:01.083Z,75.90
2017-05-17T01:14:29.949Z,74.60
2017-05-17T01:16:58.824Z,74.30
2017-05-17T01:19:28.476Z,75.90
2017-05-17T01:21:57.348Z,75.60
2017-05-17T01:24:26.227Z,76.10
2017-05-17T01:26:55.141Z,77.10
2017-05-17T01:29:24.012Z,76.40
2017-05-17T01:31:52.898Z,76.50
2017-05-17T01:34:21.806Z,76.90
2017-05-17T01:36:50.710Z,76.40
2017-05-17T01:39:19.582Z,76.60
2017-05-17T01:41:48.452Z,77.20
2017-05-17T01:44:18.090Z,77.80
2017-05-17T01:46:46.961Z,77.90
2017-05-17T01:49:15.869Z,76.90
2017-05-17T01:51:44.738Z,77.60
2017-05-17T01:54:13.613Z,78.30
2017-05-17T01:56:43.261Z,78.90
2017-05-17T01:59:12.128Z,79.00
2017-05-17T02:01:41.054Z,79.50
2017-05-17T02:04:09.930Z,79.30
2017-05-17T02:06:38.799Z,78.80
2017-05-17T02:09:07.965Z,77.90
2017-05-17T02:11:36.840Z,77.40
2017-05-17T02:14:05.721Z,76.60
2017-05-17T02:16:34.637Z,76.60
2017-05-17T02:19:03.513Z,77.20
2017-05-17T02:21:32.389Z,77.90
2017-05-17T02:24:01.385Z,78.50
2017-05-17T02:26:30.280Z,79.50
2017-05-17T02:28:59.190Z,79.30
2017-05-17T02:31:28.061Z,78.60
2017-05-17T02:33:56.928Z,78.50
2017-05-17T02:36:25.864Z,77.70
2017-05-17T02:38:54.741Z,77.20
2017-05-17T02:41:23.608Z,78.30
2017-05-17T02:43:52.524Z,78.90
2017-05-17T02:46:21.393Z,79.00
2017-05-17T02:48:50.275Z,79.80
2017-05-17T02:51:19.174Z,79.50
2017-05-17T02:53:48.040Z,79.10
2017-05-17T02:56:16.966Z,79.50
2017-05-17T02:58:45.837Z,79.30
2017-05-17T03:01:14.707Z,79.00
2017-05-17T03:03:43.606Z,79.30
2017-05-17T03:06:12.471Z,79.10
2017-05-17T03:08:41.386Z,79.20
2017-05-17T03:11:10.261Z,79.90
2017-05-17T03:13:39.181Z,80.00
2017-05-17T03:16:08.086Z,79.50
2017-05-17T03:18:36.962Z,80.20
2017-05-17T03:21:05.893Z,79.90
2017-05-17T03:23:34.769Z,79.80
2017-05-17T03:26:03.641Z,79.50
2017-05-17T03:28:32.548Z,79.80
2017-05-17T03:31:01.425Z,79.90
2017-05-17T03:33:30.328Z,79.70
2017-05-17T03:35:59.203Z,78.50
2017-05-17T03:38:28.080Z,78.10
2017-05-17T03:40:56.999Z,78.90
2017-05-17T03:43:25.878Z,79.50
2017-05-17T03:45:54.753Z,79.60
2017-05-17T03:48:23.662Z,80.10
2017-05-17T03:50:52.541Z,80.50
2017-05-17T03:53:21.445Z,81.10
2017-05-17T03:58:25.545Z,80.90
2017-05-17T04:00:54.462Z,81.60
2017-05-17T04:03:23.333Z,81.70
2017-05-17T04:05:52.204Z,81.60
2017-05-17T04:08:21.122Z,80.40
2017-05-17T04:10:50.001Z,79.80
2017-05-17T04:13:18.869Z,79.90
2017-05-17T04:15:48.517Z,80.10
2017-05-17T04:18:17.404Z,80.70
2017-05-17T04:20:46.283Z,81.70
2017-05-17T04:23:15.484Z,81.80
2017-05-17T04:25:44.395Z,81.40
2017-05-17T04:28:13.264Z,81.20
2017-05-17T04:30:42.175Z,81.50
2017-05-17T04:33:11.048Z,81.70
2017-05-17T04:35:39.960Z,81.50
2017-05-17T04:38:08.870Z,81.10
2017-05-17T04:40:37.741Z,81.20
2017-05-17T04:43:06.618Z,80.70
2017-05-17T04:45:35.533Z,80.40
2017-05-17T04:48:04.405Z,80.40
2017-05-17T04:50:33.284Z,79.90
2017-05-17T04:53:02.222Z,80.00
2017-05-17T04:55:31.101Z,80.30
2017-05-17T04:57:59.976Z,80.00
2017-05-17T05:00:28.880Z,78.50
2017-05-17T05:02:57.753Z,76.50
2017-05-17T05:05:26.696Z,76.90
2017-05-17T05:07:56.321Z,76.70
2017-05-17T05:10:25.201Z,74.20
2017-05-17T05:12:54.111Z,76.30
2017-05-17T05:15:22.985Z,76.30
2017-05-17T05:17:51.862Z,77.10
2017-05-17T05:20:21.527Z,73.60
2017-05-17T05:22:50.394Z,72.40
2017-05-17T05:25:19.264Z,71.90
2017-05-17T05:27:48.175Z,72.70
2017-05-17T05:30:17.056Z,71.70
2017-05-17T05:32:45.930Z,71.60
2017-05-17T05:35:15.601Z,69.60
2017-05-17T05:37:44.512Z,69.30
2017-05-17T05:40:13.385Z,70.20
2017-05-17T05:42:42.295Z,69.60
2017-05-17T05:45:11.911Z,67.80
2017-05-17T05:47:41.562Z,66.80
2017-05-17T05:50:10.433Z,66.60
2017-05-17T05:52:39.308Z,66.30
2017-05-17T05:55:08.953Z,66.30
2017-05-17T05:57:37.829Z,65.50
2017-05-17T06:00:06.744Z,64.50
2017-05-17T06:02:35.634Z,63.50
2017-05-17T06:05:04.501Z,64.00
2017-05-17T06:07:33.414Z,65.10
2017-05-17T06:10:02.289Z,66.70
2017-05-17T06:12:31.202Z,65.20
2017-05-17T06:15:00.081Z,65.30
2017-05-17T06:17:28.992Z,65.10
2017-05-17T06:19:57.867Z,65.30
2017-05-17T06:22:26.776Z,62.70
2017-05-17T06:24:55.666Z,63.20
2017-05-17T06:27:24.535Z,64.90
2017-05-17T06:29:53.441Z,64.10
2017-05-17T06:32:22.316Z,64.70
2017-05-17T06:34:51.193Z,63.00
2017-05-17T06:37:20.134Z,64.40
2017-05-17T06:39:49.005Z,62.50
2017-05-17T06:42:17.884Z,63.50
2017-05-17T06:44:46.785Z,61.50
2017-05-17T06:47:15.687Z,59.20
2017-05-17T06:49:44.590Z,60.00
2017-05-17T06:52:13.466Z,59.10
2017-05-17T06:54:42.340Z,58.40
2017-05-17T06:57:11.253Z,56.20
2017-05-17T06:59:40.130Z,54.80
2017-05-17T07:02:09.004Z,55.60
2017-05-17T07:04:37.940Z,55.80
2017-05-17T07:07:08.165Z,55.70
2017-05-17T07:09:37.045Z,54.90
2017-05-17T07:12:05.957Z,54.30
2017-05-17T07:14:34.839Z,54.00
2017-05-17T07:17:04.494Z,54.30
2017-05-17T07:19:33.370Z,53.90
2017-05-17T07:22:02.285Z,53.50
2017-05-17T07:24:31.162Z,54.10
2017-05-17T07:27:00.039Z,55.20
2017-05-17T07:29:28.957Z,55.80
2017-05-17T07:31:57.832Z,56.60
2017-05-17T07:34:26.709Z,55.80
2017-05-17T07:36:55.620Z,55.90
2017-05-17T07:39:24.498Z,54.40
2017-05-17T07:41:53.374Z,55.50
2017-05-17T07:44:22.314Z,58.20
2017-05-17T07:46:51.189Z,57.90
2017-05-17T07:49:20.071Z,58.60
2017-05-17T07:51:48.997Z,58.20
2017-05-17T07:54:17.878Z,61.10
2017-05-17T07:56:46.777Z,59.20
2017-05-17T07:59:15.701Z,58.60
2017-05-17T08:01:45.320Z,56.10
2017-05-17T08:04:14.196Z,57.80
2017-05-17T08:06:43.857Z,58.30
2017-05-17T08:09:12.730Z,56.40
2017-05-17T08:11:41.606Z,57.90
2017-05-17T08:14:10.522Z,57.20
2017-05-17T08:16:39.401Z,56.20
2017-05-17T08:19:08.275Z,58.50
2017-05-17T08:21:37.180Z,57.40
2017-05-17T08:24:06.052Z,57.90
2017-05-17T08:26:34.937Z,57.80
2017-05-17T08:29:03.839Z,56.80
2017-05-17T08:31:32.734Z,56.70
2017-05-17T08:34:01.636Z,57.20
2017-05-17T08:36:30.508Z,58.00
2017-05-17T08:38:59.421Z,58.10
2017-05-17T08:41:28.298Z,57.60
2017-05-17T08:43:57.184Z,57.20
2017-05-17T08:46:26.085Z,57.60
2017-05-17T08:48:54.965Z,57.50
2017-05-17T08:51:23.877Z,57.50
2017-05-17T08:53:52.758Z,57.30
2017-05-17T08:56:21.637Z,57.40
2017-05-17T08:58:50.848Z,57.60
2017-05-17T09:01:19.725Z,57.10
2017-05-17T09:03:48.604Z,57.70
2017-05-17T09:06:17.513Z,57.70
2017-05-17T09:08:46.393Z,58.90
2017-05-17T09:11:15.273Z,60.30
2017-05-17T09:13:44.184Z,57.60
2017-05-17T09:16:13.125Z,57.60
2017-05-17T09:18:42.006Z,57.50
2017-05-17T09:21:10.879Z,59.20
2017-05-17T09:23:39.797Z,57.90
2017-05-17T09:26:08.674Z,58.00
2017-05-17T09:28:37.553Z,58.50
2017-05-17T09:31:06.466Z,58.00
2017-05-17T09:33:35.347Z,59.40
2017-05-17T09:36:04.231Z,59.10
2017-05-17T09:38:33.153Z,61.40
2017-05-17T09:41:02.777Z,57.70
2017-05-17T09:43:31.657Z,60.70
2017-05-17T09:46:01.318Z,57.80
2017-05-17T09:48:30.196Z,61.00
2017-05-17T09:50:59.082Z,58.40
2017-05-17T09:53:27.993Z,60.10
2017-05-17T09:55:56.874Z,62.80
2017-05-17T09:58:25.756Z,58.90
2017-05-17T10:00:54.669Z,59.30
2017-05-17T10:03:23.557Z,57.50
2017-05-17T10:05:52.437Z,57.80
2017-05-17T10:08:21.348Z,56.80
2017-05-17T10:10:50.224Z,57.20
2017-05-17T10:13:19.345Z,57.70
2017-05-17T10:15:48.269Z,57.90
2017-05-17T10:18:17.105Z,56.10
2017-05-17T10:20:46.024Z,57.90
2017-05-17T10:23:14.904Z,58.30
2017-05-17T10:25:43.797Z,59.00
2017-05-17T10:28:12.713Z,61.00
2017-05-17T10:30:42.328Z,61.40
2017-05-17T10:33:11.989Z,58.00
2017-05-17T10:35:40.876Z,59.10
2017-05-17T10:38:09.766Z,59.10
2017-05-17T10:40:38.945Z,58.80
2017-05-17T10:43:07.823Z,57.40
2017-05-17T10:45:36.708Z,56.00
2017-05-17T10:48:05.634Z,56.70
2017-05-17T10:50:34.512Z,56.30
2017-05-17T10:53:03.395Z,54.70
2017-05-17T10:55:32.342Z,53.90
2017-05-17T10:58:01.225Z,53.90
2017-05-17T11:00:30.101Z,53.20
2017-05-17T11:02:59.012Z,52.10
2017-05-17T11:05:27.960Z,50.10
2017-05-17T11:07:57.083Z,51.50
2017-05-17T11:10:26.750Z,55.20
2017-05-17T11:12:55.738Z,52.70
2017-05-17T11:15:24.744Z,52.30
2017-05-17T11:17:53.757Z,50.70
2017-05-17T11:20:22.686Z,49.30
2017-05-17T11:22:52.430Z,49.70
2017-05-17T11:25:21.418Z,48.70
2017-05-17T11:27:50.469Z,48.70
2017-05-17T11:30:19.505Z,48.90
2017-05-17T11:32:48.396Z,48.10
2017-05-17T11:35:18.690Z,46.30
2017-05-17T11:37:50.629Z,46.00
2017-05-17T11:40:20.434Z,47.70
2017-05-17T11:42:50.221Z,46.50
2017-05-17T11:45:19.213Z,47.40
2017-05-17T11:47:48.125Z,46.00
2017-05-17T11:50:18.046Z,49.20
2017-05-17T11:52:47.080Z,54.20
2017-05-17T11:55:16.761Z,50.50
2017-05-17T11:57:45.706Z,53.20
2017-05-17T12:00:15.507Z,49.40
2017-05-17T12:02:45.156Z,51.30
2017-05-17T12:05:14.925Z,50.20
2017-05-17T12:07:44.028Z,52.10
2017-05-17T12:10:13.033Z,48.70
2017-05-17T12:12:43.055Z,48.30
2017-05-17T12:15:12.862Z,50.80
2017-05-17T12:17:41.823Z,50.20
2017-05-17T12:20:11.529Z,50.80
2017-05-17T12:22:41.181Z,53.70
2017-05-17T12:25:10.113Z,49.20
2017-05-17T12:27:39.080Z,51.10
2017-05-17T12:30:07.979Z,47.20
2017-05-17T12:32:36.972Z,50.40
2017-05-17T12:35:05.881Z,48.90
2017-05-17T12:37:35.693Z,47.60
2017-05-17T12:40:04.710Z,45.80
2017-05-17T12:42:33.753Z,47.20
2017-05-17T12:45:02.914Z,45.90
2017-05-17T12:47:32.949Z,45.90
2017-05-17T12:50:02.066Z,48.60
2017-05-17T12:52:31.039Z,47.50
2017-05-17T12:54:59.994Z,48.40
2017-05-17T12:57:29.009Z,48.40
2017-05-17T12:59:57.925Z,47.90
2017-05-17T13:02:27.681Z,46.80
2017-05-17T13:04:56.650Z,45.60
2017-05-17T13:07:26.436Z,45.40
2017-05-17T13:09:55.494Z,45.20
2017-05-17T13:12:25.104Z,47.30
2017-05-17T13:14:54.026Z,47.10
2017-05-17T13:17:23.063Z,49.00
2017-05-17T13:19:52.088Z,46.50
2017-05-17T13:22:21.058Z,44.80
2017-05-17T13:24:50.009Z,46.50
2017-05-17T13:27:19.023Z,44.10
2017-05-17T13:29:48.721Z,41.50
2017-05-17T13:32:17.728Z,41.40
2017-05-17T13:34:47.943Z,41.30
2017-05-17T13:37:16.922Z,41.50
2017-05-17T13:39:45.869Z,33.00
2017-05-17T13:42:14.930Z,29.50
2017-05-17T13:44:43.793Z,28.90
2017-05-17T13:47:12.825Z,27.70
2017-05-17T13:49:41.788Z,22.30
2017-05-17T13:52:10.717Z,22.90
2017-05-17T13:54:40.721Z,25.30
2017-05-17T13:57:09.693Z,26.60
2017-05-17T13:59:39.539Z,24.80
2017-05-17T14:02:09.041Z,22.00
2017-05-17T14:04:38.088Z,20.20
2017-05-17T14:07:07.232Z,22.60
2017-05-17T14:09:38.449Z,23.70
2017-05-17T14:12:07.372Z,24.60
2017-05-17T14:14:37.033Z,24.50
2017-05-17T14:17:06.737Z,25.30
2017-05-17T14:19:35.689Z,22.50
2017-05-17T14:22:04.672Z,20.80
2017-05-17T14:24:34.406Z,20.00
2017-05-17T14:27:03.934Z,18.60
2017-05-17T14:29:32.906Z,20.10
2017-05-17T14:32:02.533Z,19.30
2017-05-17T14:34:31.488Z,22.70
2017-05-17T14:37:01.102Z,25.00
2017-05-17T14:39:30.719Z,27.10
2017-05-17T14:41:59.652Z,29.30
2017-05-17T14:44:28.526Z,30.00
2017-05-17T14:46:57.401Z,31.40
2017-05-17T14:49:26.313Z,35.90
2017-05-17T14:51:55.190Z,35.70
2017-05-17T14:54:24.064Z,34.70
2017-05-17T14:56:52.969Z,35.70
2017-05-17T14:59:21.877Z,35.80
2017-05-17T15:01:50.753Z,40.00
2017-05-17T15:04:19.626Z,36.30
2017-05-17T15:06:48.533Z,37.00
2017-05-17T15:09:17.411Z,36.60
2017-05-17T15:11:46.281Z,36.80
2017-05-17T15:14:15.937Z,37.10
2017-05-17T15:16:44.873Z,37.70
2017-05-17T15:19:13.788Z,37.80
2017-05-17T15:21:43.400Z,33.60
2017-05-17T15:24:12.275Z,30.40
2017-05-17T15:26:41.919Z,29.60
2017-05-17T15:29:10.796Z,27.50
2017-05-17T15:31:39.673Z,29.10
2017-05-17T15:34:09.329Z,31.20
2017-05-17T15:36:38.202Z,30.90
2017-05-17T15:39:07.089Z,34.00
2017-05-17T15:41:36.002Z,34.60
2017-05-17T15:44:04.885Z,34.70
2017-05-17T15:46:33.758Z,35.20
2017-05-17T15:49:02.661Z,35.80
2017-05-17T15:51:31.538Z,34.80
2017-05-17T15:54:00.445Z,38.50
2017-05-17T15:56:29.324Z,35.30
2017-05-17T15:58:58.265Z,36.10
2017-05-17T16:01:27.141Z,37.50
2017-05-17T16:03:56.016Z,36.10
2017-05-17T16:06:24.928Z,36.50
2017-05-17T16:08:53.799Z,37.10
2017-05-17T16:11:22.680Z,37.90
2017-05-17T16:13:51.592Z,38.90
2017-05-17T16:16:20.497Z,38.60
2017-05-17T16:18:49.377Z,38.90
2017-05-17T16:21:18.286Z,39.10
2017-05-17T16:23:47.905Z,40.40
2017-05-17T16:26:17.526Z,40.10
2017-05-17T16:28:46.438Z,39.30
2017-05-17T16:31:15.316Z,38.50
2017-05-17T16:35:43.593Z,39.80
2017-05-17T16:38:12.909Z,44.40
2017-05-17T16:42:03.761Z,41.20
2017-05-17T16:44:30.941Z,41.50
2017-05-17T16:46:58.085Z,40.90
2017-05-17T16:49:25.287Z,39.90
2017-05-17T16:51:53.193Z,43.20
2017-05-17T16:54:20.323Z,43.20
2017-05-17T16:56:47.513Z,42.20
2017-05-17T16:59:14.664Z,43.40
2017-05-17T17:01:41.817Z,44.40
2017-05-17T17:04:09.005Z,44.70
2017-05-17T17:06:36.907Z,45.40
2017-05-17T17:09:04.088Z,45.60
2017-05-17T17:11:31.269Z,45.20
2017-05-17T17:13:59.205Z,46.00
2017-05-17T17:16:26.353Z,45.10
2017-05-17T17:18:53.565Z,44.30
2017-05-17T17:21:20.708Z,45.90
2017-05-17T17:23:47.849Z,46.80
2017-05-17T17:26:15.804Z,46.70
2017-05-17T17:28:42.949Z,44.50
2017-05-17T17:31:10.087Z,47.00
2017-05-17T17:33:37.313Z,49.30
2017-05-17T17:36:04.461Z,50.70
2017-05-17T17:38:31.622Z,51.60
2017-05-17T17:40:58.812Z,52.20
2017-05-17T17:43:26.721Z,50.90
2017-05-17T17:45:53.868Z,51.30
2017-05-17T17:48:21.061Z,52.80
2017-05-17T17:50:48.198Z,54.00
2017-05-17T17:53:15.345Z,54.00
2017-05-17T17:55:42.529Z,55.20
2017-05-17T17:58:10.434Z,55.60
2017-05-17T18:00:37.578Z,56.50
2017-05-17T18:03:04.798Z,57.20
2017-05-17T18:05:32.670Z,57.70
2017-05-17T18:08:00.559Z,57.90
2017-05-17T18:10:27.733Z,58.30
2017-05-17T18:12:54.885Z,58.90
2017-05-17T18:15:22.942Z,59.20
2017-05-17T18:17:50.141Z,59.00
2017-05-17T18:20:17.295Z,59.20
2017-05-17T18:22:45.177Z,60.00
2017-05-17T18:25:12.370Z,60.80
2017-05-17T18:27:39.541Z,59.90
2017-05-17T18:30:06.721Z,61.50
2017-05-17T18:32:34.594Z,61.50
2017-05-17T18:35:02.485Z,62.30
2017-05-17T18:37:29.656Z,62.60
2017-05-17T18:39:56.806Z,62.80
2017-05-17T18:42:23.990Z,63.40
2017-05-17T18:44:51.189Z,64.20
2017-05-17T18:47:18.369Z,64.70
2017-05-17T18:49:45.520Z,64.90
2017-05-17T18:52:12.664Z,64.50
2017-05-17T18:54:39.855Z,64.50
2017-05-17T18:57:07.749Z,65.00
2017-05-17T18:59:34.905Z,65.70
2017-05-17T19:02:02.137Z,66.50
2017-05-17T19:04:30.040Z,66.30
2017-05-17T19:06:57.186Z,67.10
2017-05-17T19:09:24.363Z,67.60
2017-05-17T19:11:52.297Z,67.00
2017-05-17T19:14:19.450Z,67.60
2017-05-17T19:16:46.644Z,67.30
2017-05-17T19:19:13.813Z,66.80
2017-05-17T19:21:41.713Z,66.80
2017-05-17T19:24:08.900Z,66.20
2017-05-17T19:26:36.054Z,66.70
2017-05-17T19:29:03.197Z,67.10
2017-05-17T19:31:30.385Z,66.80
2017-05-17T19:33:58.278Z,66.60
2017-05-17T19:36:25.458Z,67.20
2017-05-17T19:38:52.620Z,68.30
2017-05-17T19:41:19.772Z,68.10
2017-05-17T19:43:47.116Z,68.80
2017-05-17T19:46:14.276Z,68.80
2017-05-17T19:48:41.433Z,69.60
2017-05-17T19:51:08.633Z,69.20
2017-05-17T19:53:35.789Z,68.90
2017-05-17T19:56:02.988Z,69.40
2017-05-17T19:58:30.150Z,70.00
2017-05-17T20:00:57.284Z,70.50
2017-05-17T20:03:24.477Z,70.40
2017-05-17T20:05:51.617Z,70.30
2017-05-17T20:08:19.553Z,70.70
2017-05-17T20:10:46.707Z,71.00
2017-05-17T20:13:13.891Z,71.30
2017-05-17T20:15:41.029Z,71.70
2017-05-17T20:18:08.933Z,70.50
2017-05-17T20:20:36.116Z,71.70
2017-05-17T20:23:03.249Z,71.80
2017-05-17T20:25:30.408Z,72.10
2017-05-17T20:27:57.626Z,72.50
2017-05-17T20:30:24.809Z,73.20
2017-05-17T20:32:52.017Z,73.00
2017-05-17T20:35:19.206Z,73.00
2017-05-17T20:37:46.425Z,73.20
2017-05-17T20:40:13.573Z,73.20
2017-05-17T20:42:41.021Z,73.60
2017-05-17T20:45:08.484Z,73.60
2017-05-17T20:47:35.645Z,74.50
2017-05-17T20:50:02.805Z,75.00
2017-05-17T20:52:29.982Z,74.70
2017-05-17T20:54:57.169Z,74.50
2017-05-17T20:57:25.261Z,74.80
2017-05-17T20:59:52.698Z,75.50
2017-05-17T21:02:20.664Z,75.60
2017-05-17T21:04:48.617Z,74.90
2017-05-17T21:07:15.777Z,76.70
2017-05-17T21:09:43.677Z,75.80
2017-05-17T21:12:10.881Z,76.00
2017-05-17T21:14:38.053Z,76.00
2017-05-17T21:17:05.974Z,76.10
2017-05-17T21:19:33.184Z,76.30
2017-05-17T21:22:00.318Z,76.10
2017-05-17T21:24:28.200Z,76.40
2017-05-17T21:26:55.744Z,76.40
2017-05-17T21:29:23.736Z,76.70
2017-05-17T21:31:50.946Z,77.50
2017-05-17T21:34:18.118Z,78.00
2017-05-17T21:36:46.032Z,77.50
2017-05-17T21:39:13.232Z,77.60
2017-05-17T21:41:40.426Z,77.60
2017-05-17T21:44:07.570Z,77.70
2017-05-17T21:46:34.768Z,78.00
2017-05-17T21:49:01.966Z,78.00
2017-05-17T21:51:29.113Z,78.60
2017-05-17T21:53:56.492Z,78.80
2017-05-17T21:56:24.488Z,79.10
2017-05-17T21:58:51.657Z,79.50
2017-05-17T22:01:19.557Z,79.20
2017-05-17T22:03:46.722Z,79.20
2017-05-17T22:06:13.872Z,79.60
2017-05-17T22:08:41.077Z,79.40
2017-05-17T22:11:08.973Z,79.20
2017-05-17T22:13:36.141Z,79.20
2017-05-17T22:16:03.357Z,79.00
2017-05-17T22:18:31.270Z,79.50
2017-05-17T22:20:58.441Z,79.70
2017-05-17T22:23:25.626Z,80.90
2017-05-17T22:25:52.779Z,80.20
2017-05-17T22:28:19.948Z,80.60
2017-05-17T22:30:47.155Z,80.30
2017-05-17T22:33:14.312Z,80.10
2017-05-17T22:35:42.233Z,80.50
2017-05-17T22:38:09.426Z,81.10
2017-05-17T22:40:37.312Z,80.70
2017-05-17T22:43:04.457Z,80.80
2017-05-17T22:45:32.390Z,80.40
2017-05-17T22:47:59.585Z,80.30
2017-05-17T22:50:26.730Z,80.60
2017-05-17T22:52:53.934Z,80.50
2017-05-17T22:55:21.097Z,81.00
2017-05-17T22:57:48.253Z,80.70
2017-05-17T23:00:15.489Z,80.40
2017-05-17T23:02:42.641Z,81.10
2017-05-17T23:05:09.800Z,81.70
2017-05-17T23:07:37.021Z,81.60
2017-05-17T23:10:04.174Z,81.20
2017-05-17T23:12:31.333Z,81.30
2017-05-17T23:14:58.517Z,81.50
2017-05-17T23:17:26.433Z,81.80
2017-05-17T23:19:53.588Z,81.20
2017-05-17T23:22:20.781Z,81.20
2017-05-17T23:24:48.002Z,81.40
2017-05-17T23:27:15.150Z,81.30
2017-05-17T23:29:42.311Z,81.90
2017-05-17T23:32:09.496Z,83.10
2017-05-17T23:34:37.409Z,82.40
2017-05-17T23:37:04.609Z,82.40
2017-05-17T23:39:32.508Z,83.10
2017-05-17T23:41:59.658Z,83.10
2017-05-17T23:44:26.852Z,82.90
2017-05-17T23:46:53.997Z,82.70
2017-05-17T23:49:21.162Z,82.80
2017-05-17T23:51:48.357Z,82.70
2017-05-17T23:54:15.531Z,82.60
2017-05-17T23:56:42.709Z,82.80
2017-05-17T23:59:09.901Z,82.30
